sensor_id;sensor_type;location;lat;lon;timestamp;temperature;humidity
17843;DHT22;69286;48.222;16.332;2024-02-16T00:01:05;7.80;99.90
17843;DHT22;69286;48.222;16.332;2024-02-16T00:03:32;7.80;99.90
17843;DHT22;69286;48.222;16.332;2024-02-16T00:06:00;7.80;99.90
17843;DHT22;69286;48.222;16.332;2024-02-16T00:08:27;7.80;99.90
17843;DHT22;69286;48.222;16.332;2024-02-16T00:10:55;7.80;99.90
17843;DHT22;69286;48.222;16.332;2024-02-16T00:13:22;7.90;99.90
17843;DHT22;69286;48.222;16.332;2024-02-16T00:15:49;7.80;99.90
17843;DHT22;69286;48.222;16.332;2024-02-16T00:18:16;7.80;99.90
17843;DHT22;69286;48.222;16.332;2024-02-16T00:20:43;7.90;99.90
17843;DHT22;69286;48.222;16.332;2024-02-16T00:23:11;7.80;99.90
17843;DHT22;69286;48.222;16.332;2024-02-16T00:25:38;7.80;99.90
17843;DHT22;69286;48.222;16.332;2024-02-16T00:28:08;7.80;99.90
17843;DHT22;69286;48.222;16.332;2024-02-16T00:30:35;7.90;99.90
17843;DHT22;69286;48.222;16.332;2024-02-16T00:33:02;7.80;99.90
17843;DHT22;69286;48.222;16.332;2024-02-16T00:35:29;7.80;99.90
17843;DHT22;69286;48.222;16.332;2024-02-16T00:37:58;7.80;99.90
17843;DHT22;69286;48.222;16.332;2024-02-16T00:40:25;7.80;99.90
17843;DHT22;69286;48.222;16.332;2024-02-16T00:42:53;7.80;99.90
17843;DHT22;69286;48.222;16.332;2024-02-16T00:45:21;7.80;99.90
17843;DHT22;69286;48.222;16.332;2024-02-16T00:47:48;7.80;99.90
17843;DHT22;69286;48.222;16.332;2024-02-16T00:50:15;7.80;99.90
17843;DHT22;69286;48.222;16.332;2024-02-16T00:52:42;7.70;99.90
17843;DHT22;69286;48.222;16.332;2024-02-16T00:55:11;7.80;99.90
17843;DHT22;69286;48.222;16.332;2024-02-16T00:57:38;7.70;99.90
17843;DHT22;69286;48.222;16.332;2024-02-16T01:00:07;7.70;99.90
17843;DHT22;69286;48.222;16.332;2024-02-16T01:02:37;7.60;99.90
17843;DHT22;69286;48.222;16.332;2024-02-16T01:05:04;7.60;99.90
17843;DHT22;69286;48.222;16.332;2024-02-16T01:07:31;7.60;99.90
17843;DHT22;69286;48.222;16.332;2024-02-16T01:09:58;7.60;99.90
17843;DHT22;69286;48.222;16.332;2024-02-16T01:12:26;7.60;99.90
17843;DHT22;69286;48.222;16.332;2024-02-16T01:14:56;7.50;99.90
17843;DHT22;69286;48.222;16.332;2024-02-16T01:17:23;7.50;99.90
17843;DHT22;69286;48.222;16.332;2024-02-16T01:19:51;7.50;99.90
17843;DHT22;69286;48.222;16.332;2024-02-16T01:22:18;7.50;99.90
17843;DHT22;69286;48.222;16.332;2024-02-16T01:24:47;7.50;99.90
17843;DHT22;69286;48.222;16.332;2024-02-16T01:27:15;7.40;99.90
17843;DHT22;69286;48.222;16.332;2024-02-16T01:29:42;7.40;99.90
17843;DHT22;69286;48.222;16.332;2024-02-16T01:32:09;7.40;99.90
17843;DHT22;69286;48.222;16.332;2024-02-16T01:34:36;7.40;99.90
17843;DHT22;69286;48.222;16.332;2024-02-16T01:37:06;7.40;99.90
17843;DHT22;69286;48.222;16.332;2024-02-16T01:39:33;7.40;99.90
17843;DHT22;69286;48.222;16.332;2024-02-16T01:42:00;7.30;99.90
17843;DHT22;69286;48.222;16.332;2024-02-16T01:44:27;7.40;99.90
17843;DHT22;69286;48.222;16.332;2024-02-16T01:46:54;7.30;99.90
17843;DHT22;69286;48.222;16.332;2024-02-16T01:49:21;7.30;99.90
17843;DHT22;69286;48.222;16.332;2024-02-16T01:51:48;7.30;99.90
17843;DHT22;69286;48.222;16.332;2024-02-16T01:54:16;7.30;99.90
17843;DHT22;69286;48.222;16.332;2024-02-16T01:56:44;7.20;99.90
17843;DHT22;69286;48.222;16.332;2024-02-16T01:59:11;7.20;99.90
17843;DHT22;69286;48.222;16.332;2024-02-16T02:01:37;7.20;99.90
17843;DHT22;69286;48.222;16.332;2024-02-16T02:04:05;7.20;99.90
17843;DHT22;69286;48.222;16.332;2024-02-16T02:06:32;7.20;99.90
17843;DHT22;69286;48.222;16.332;2024-02-16T02:08:59;7.20;99.90
17843;DHT22;69286;48.222;16.332;2024-02-16T02:11:28;7.20;99.90
17843;DHT22;69286;48.222;16.332;2024-02-16T02:13:54;7.20;99.90
17843;DHT22;69286;48.222;16.332;2024-02-16T02:16:22;7.20;99.90
17843;DHT22;69286;48.222;16.332;2024-02-16T02:18:52;7.20;99.90
17843;DHT22;69286;48.222;16.332;2024-02-16T02:21:19;7.20;99.90
17843;DHT22;69286;48.222;16.332;2024-02-16T02:23:47;7.10;99.90
17843;DHT22;69286;48.222;16.332;2024-02-16T02:26:14;7.10;99.90
17843;DHT22;69286;48.222;16.332;2024-02-16T02:28:42;7.10;99.90
17843;DHT22;69286;48.222;16.332;2024-02-16T02:31:09;7.00;99.90
17843;DHT22;69286;48.222;16.332;2024-02-16T02:33:36;7.00;99.90
17843;DHT22;69286;48.222;16.332;2024-02-16T02:36:04;7.00;99.90
17843;DHT22;69286;48.222;16.332;2024-02-16T02:38:31;7.00;99.90
17843;DHT22;69286;48.222;16.332;2024-02-16T02:41:00;7.00;99.90
17843;DHT22;69286;48.222;16.332;2024-02-16T02:43:27;7.00;99.90
17843;DHT22;69286;48.222;16.332;2024-02-16T02:45:55;7.00;99.90
17843;DHT22;69286;48.222;16.332;2024-02-16T02:48:21;7.00;99.90
17843;DHT22;69286;48.222;16.332;2024-02-16T02:50:48;7.00;99.90
17843;DHT22;69286;48.222;16.332;2024-02-16T02:53:15;6.90;99.90
17843;DHT22;69286;48.222;16.332;2024-02-16T02:55:43;6.90;99.90
17843;DHT22;69286;48.222;16.332;2024-02-16T02:58:12;6.90;99.90
17843;DHT22;69286;48.222;16.332;2024-02-16T03:00:41;6.90;99.90
17843;DHT22;69286;48.222;16.332;2024-02-16T03:03:08;6.90;99.90
17843;DHT22;69286;48.222;16.332;2024-02-16T03:05:35;6.90;99.90
17843;DHT22;69286;48.222;16.332;2024-02-16T03:08:02;6.80;99.90
17843;DHT22;69286;48.222;16.332;2024-02-16T03:10:29;6.80;99.90
17843;DHT22;69286;48.222;16.332;2024-02-16T03:13:00;8.00;99.90
17843;DHT22;69286;48.222;16.332;2024-02-16T03:15:28;6.80;99.90
17843;DHT22;69286;48.222;16.332;2024-02-16T03:17:55;6.80;99.90
17843;DHT22;69286;48.222;16.332;2024-02-16T03:20:22;6.80;99.90
17843;DHT22;69286;48.222;16.332;2024-02-16T03:22:49;6.70;99.90
17843;DHT22;69286;48.222;16.332;2024-02-16T03:25:16;6.70;99.90
17843;DHT22;69286;48.222;16.332;2024-02-16T03:27:43;6.70;99.90
17843;DHT22;69286;48.222;16.332;2024-02-16T03:30:11;6.70;99.90
17843;DHT22;69286;48.222;16.332;2024-02-16T03:32:39;6.70;99.90
17843;DHT22;69286;48.222;16.332;2024-02-16T03:35:07;6.70;99.90
17843;DHT22;69286;48.222;16.332;2024-02-16T03:37:34;6.70;99.90
17843;DHT22;69286;48.222;16.332;2024-02-16T03:40:01;6.70;99.90
17843;DHT22;69286;48.222;16.332;2024-02-16T03:42:30;6.60;99.90
17843;DHT22;69286;48.222;16.332;2024-02-16T03:44:57;6.60;99.90
17843;DHT22;69286;48.222;16.332;2024-02-16T03:47:24;6.70;99.90
17843;DHT22;69286;48.222;16.332;2024-02-16T03:49:53;6.60;99.90
17843;DHT22;69286;48.222;16.332;2024-02-16T03:52:20;6.60;99.90
17843;DHT22;69286;48.222;16.332;2024-02-16T03:54:46;6.60;99.90
17843;DHT22;69286;48.222;16.332;2024-02-16T03:57:15;6.60;99.90
17843;DHT22;69286;48.222;16.332;2024-02-16T03:59:42;6.60;99.90
17843;DHT22;69286;48.222;16.332;2024-02-16T04:02:09;6.60;99.90
17843;DHT22;69286;48.222;16.332;2024-02-16T04:04:36;6.60;99.90
17843;DHT22;69286;48.222;16.332;2024-02-16T04:07:05;6.60;99.90
17843;DHT22;69286;48.222;16.332;2024-02-16T04:09:33;6.60;99.90
17843;DHT22;69286;48.222;16.332;2024-02-16T04:12:01;6.60;99.90
17843;DHT22;69286;48.222;16.332;2024-02-16T04:14:29;6.60;99.90
17843;DHT22;69286;48.222;16.332;2024-02-16T04:16:56;6.60;99.90
17843;DHT22;69286;48.222;16.332;2024-02-16T04:19:24;6.60;99.90
17843;DHT22;69286;48.222;16.332;2024-02-16T04:21:51;6.60;99.90
17843;DHT22;69286;48.222;16.332;2024-02-16T04:24:19;6.60;99.90
17843;DHT22;69286;48.222;16.332;2024-02-16T04:26:46;6.50;99.90
17843;DHT22;69286;48.222;16.332;2024-02-16T04:29:14;6.50;99.90
17843;DHT22;69286;48.222;16.332;2024-02-16T04:31:42;6.50;99.90
17843;DHT22;69286;48.222;16.332;2024-02-16T04:34:10;6.50;99.90
17843;DHT22;69286;48.222;16.332;2024-02-16T04:36:37;6.40;99.90
17843;DHT22;69286;48.222;16.332;2024-02-16T04:39:04;6.50;99.90
17843;DHT22;69286;48.222;16.332;2024-02-16T04:41:33;6.50;99.90
17843;DHT22;69286;48.222;16.332;2024-02-16T04:44:00;6.50;99.90
17843;DHT22;69286;48.222;16.332;2024-02-16T04:46:27;6.50;99.90
17843;DHT22;69286;48.222;16.332;2024-02-16T04:48:54;6.50;99.90
17843;DHT22;69286;48.222;16.332;2024-02-16T04:51:21;6.50;99.90
17843;DHT22;69286;48.222;16.332;2024-02-16T04:53:48;6.50;99.90
17843;DHT22;69286;48.222;16.332;2024-02-16T04:56:15;6.50;99.90
17843;DHT22;69286;48.222;16.332;2024-02-16T04:58:43;6.40;99.90
17843;DHT22;69286;48.222;16.332;2024-02-16T05:01:10;6.40;99.90
17843;DHT22;69286;48.222;16.332;2024-02-16T05:03:37;6.40;99.90
17843;DHT22;69286;48.222;16.332;2024-02-16T05:06:06;6.30;99.90
17843;DHT22;69286;48.222;16.332;2024-02-16T05:08:33;6.30;99.90
17843;DHT22;69286;48.222;16.332;2024-02-16T05:11:00;6.30;99.90
17843;DHT22;69286;48.222;16.332;2024-02-16T05:13:27;6.30;99.90
17843;DHT22;69286;48.222;16.332;2024-02-16T05:15:56;6.30;99.90
17843;DHT22;69286;48.222;16.332;2024-02-16T05:18:23;6.20;99.90
17843;DHT22;69286;48.222;16.332;2024-02-16T05:20:50;6.20;99.90
17843;DHT22;69286;48.222;16.332;2024-02-16T05:23:17;6.20;99.90
17843;DHT22;69286;48.222;16.332;2024-02-16T05:25:44;6.20;99.90
17843;DHT22;69286;48.222;16.332;2024-02-16T05:28:11;6.20;99.90
17843;DHT22;69286;48.222;16.332;2024-02-16T05:30:39;6.20;99.90
17843;DHT22;69286;48.222;16.332;2024-02-16T05:33:07;6.20;99.90
17843;DHT22;69286;48.222;16.332;2024-02-16T05:35:34;6.20;99.90
17843;DHT22;69286;48.222;16.332;2024-02-16T05:38:05;6.20;99.90
17843;DHT22;69286;48.222;16.332;2024-02-16T05:40:46;6.10;99.90
17843;DHT22;69286;48.222;16.332;2024-02-16T05:43:19;6.10;99.90
17843;DHT22;69286;48.222;16.332;2024-02-16T05:45:46;6.20;99.90
17843;DHT22;69286;48.222;16.332;2024-02-16T05:48:14;6.10;99.90
17843;DHT22;69286;48.222;16.332;2024-02-16T05:50:42;6.20;99.90
17843;DHT22;69286;48.222;16.332;2024-02-16T05:53:10;6.20;99.90
17843;DHT22;69286;48.222;16.332;2024-02-16T05:55:37;6.20;99.90
17843;DHT22;69286;48.222;16.332;2024-02-16T05:58:04;6.20;99.90
17843;DHT22;69286;48.222;16.332;2024-02-16T06:00:33;6.20;99.90
17843;DHT22;69286;48.222;16.332;2024-02-16T06:03:00;6.20;99.90
17843;DHT22;69286;48.222;16.332;2024-02-16T06:05:29;6.60;99.90
17843;DHT22;69286;48.222;16.332;2024-02-16T06:07:56;6.20;99.90
17843;DHT22;69286;48.222;16.332;2024-02-16T06:10:24;6.20;99.90
17843;DHT22;69286;48.222;16.332;2024-02-16T06:12:51;6.20;99.90
17843;DHT22;69286;48.222;16.332;2024-02-16T06:15:18;6.20;99.90
17843;DHT22;69286;48.222;16.332;2024-02-16T06:17:47;6.20;99.90
17843;DHT22;69286;48.222;16.332;2024-02-16T06:20:15;6.30;99.90
17843;DHT22;69286;48.222;16.332;2024-02-16T06:22:43;6.30;99.90
17843;DHT22;69286;48.222;16.332;2024-02-16T06:25:10;6.30;99.90
17843;DHT22;69286;48.222;16.332;2024-02-16T06:27:37;6.40;99.90
17843;DHT22;69286;48.222;16.332;2024-02-16T06:30:05;6.50;99.90
17843;DHT22;69286;48.222;16.332;2024-02-16T06:32:33;6.60;99.90
17843;DHT22;69286;48.222;16.332;2024-02-16T06:35:00;6.70;99.90
17843;DHT22;69286;48.222;16.332;2024-02-16T06:37:27;6.80;99.90
17843;DHT22;69286;48.222;16.332;2024-02-16T06:39:55;6.90;99.90
17843;DHT22;69286;48.222;16.332;2024-02-16T06:42:22;7.10;99.90
17843;DHT22;69286;48.222;16.332;2024-02-16T06:44:49;7.30;99.90
17843;DHT22;69286;48.222;16.332;2024-02-16T06:47:16;7.40;99.90
17843;DHT22;69286;48.222;16.332;2024-02-16T06:49:44;7.60;99.90
17843;DHT22;69286;48.222;16.332;2024-02-16T06:52:12;7.70;99.90
17843;DHT22;69286;48.222;16.332;2024-02-16T06:54:39;8.00;99.90
17843;DHT22;69286;48.222;16.332;2024-02-16T06:57:07;8.10;99.90
17843;DHT22;69286;48.222;16.332;2024-02-16T06:59:33;8.50;99.90
17843;DHT22;69286;48.222;16.332;2024-02-16T07:02:00;9.00;99.90
17843;DHT22;69286;48.222;16.332;2024-02-16T07:04:27;9.30;99.90
17843;DHT22;69286;48.222;16.332;2024-02-16T07:06:54;9.80;99.90
17843;DHT22;69286;48.222;16.332;2024-02-16T07:09:21;10.40;99.90
17843;DHT22;69286;48.222;16.332;2024-02-16T07:11:48;10.80;99.90
17843;DHT22;69286;48.222;16.332;2024-02-16T07:14:17;11.00;99.90
17843;DHT22;69286;48.222;16.332;2024-02-16T07:16:44;11.10;99.90
17843;DHT22;69286;48.222;16.332;2024-02-16T07:19:11;11.40;99.90
17843;DHT22;69286;48.222;16.332;2024-02-16T07:21:39;11.30;99.90
17843;DHT22;69286;48.222;16.332;2024-02-16T07:24:06;11.30;99.90
17843;DHT22;69286;48.222;16.332;2024-02-16T07:26:34;11.00;99.90
17843;DHT22;69286;48.222;16.332;2024-02-16T07:29:02;11.10;99.90
17843;DHT22;69286;48.222;16.332;2024-02-16T07:31:32;11.10;99.90
17843;DHT22;69286;48.222;16.332;2024-02-16T07:34:00;11.10;99.90
17843;DHT22;69286;48.222;16.332;2024-02-16T07:36:27;11.30;99.90
17843;DHT22;69286;48.222;16.332;2024-02-16T07:38:54;11.20;99.90
17843;DHT22;69286;48.222;16.332;2024-02-16T07:41:21;11.20;99.90
17843;DHT22;69286;48.222;16.332;2024-02-16T07:43:48;11.30;99.90
17843;DHT22;69286;48.222;16.332;2024-02-16T07:46:16;11.60;99.90
17843;DHT22;69286;48.222;16.332;2024-02-16T07:48:45;11.70;99.90
17843;DHT22;69286;48.222;16.332;2024-02-16T07:51:12;11.90;99.90
17843;DHT22;69286;48.222;16.332;2024-02-16T07:53:39;12.20;99.90
17843;DHT22;69286;48.222;16.332;2024-02-16T07:56:07;12.40;99.80
17843;DHT22;69286;48.222;16.332;2024-02-16T07:58:35;12.40;99.90
17843;DHT22;69286;48.222;16.332;2024-02-16T08:01:02;12.70;99.70
17843;DHT22;69286;48.222;16.332;2024-02-16T08:03:29;12.90;99.20
17843;DHT22;69286;48.222;16.332;2024-02-16T08:05:57;12.80;98.90
17843;DHT22;69286;48.222;16.332;2024-02-16T08:08:24;12.90;98.90
17843;DHT22;69286;48.222;16.332;2024-02-16T08:10:52;12.70;98.40
17843;DHT22;69286;48.222;16.332;2024-02-16T08:13:19;12.80;98.30
17843;DHT22;69286;48.222;16.332;2024-02-16T08:15:46;12.50;98.80
17843;DHT22;69286;48.222;16.332;2024-02-16T08:18:14;12.40;99.30
17843;DHT22;69286;48.222;16.332;2024-02-16T08:20:42;12.40;99.20
17843;DHT22;69286;48.222;16.332;2024-02-16T08:23:10;12.40;99.30
17843;DHT22;69286;48.222;16.332;2024-02-16T08:25:37;12.60;99.00
17843;DHT22;69286;48.222;16.332;2024-02-16T08:28:04;12.70;98.60
17843;DHT22;69286;48.222;16.332;2024-02-16T08:30:31;12.30;99.50
17843;DHT22;69286;48.222;16.332;2024-02-16T08:32:58;12.50;99.40
17843;DHT22;69286;48.222;16.332;2024-02-16T08:35:26;12.70;99.20
17843;DHT22;69286;48.222;16.332;2024-02-16T08:37:55;12.60;99.00
17843;DHT22;69286;48.222;16.332;2024-02-16T08:40:23;12.70;99.20
17843;DHT22;69286;48.222;16.332;2024-02-16T08:42:50;12.90;98.90
17843;DHT22;69286;48.222;16.332;2024-02-16T08:45:17;13.10;98.70
17843;DHT22;69286;48.222;16.332;2024-02-16T08:47:44;13.10;98.70
17843;DHT22;69286;48.222;16.332;2024-02-16T08:50:11;13.30;98.40
17843;DHT22;69286;48.222;16.332;2024-02-16T08:52:39;13.40;98.10
17843;DHT22;69286;48.222;16.332;2024-02-16T08:55:06;13.60;98.00
17843;DHT22;69286;48.222;16.332;2024-02-16T08:57:35;13.60;98.20
17843;DHT22;69286;48.222;16.332;2024-02-16T09:00:03;13.70;97.80
17843;DHT22;69286;48.222;16.332;2024-02-16T09:02:30;13.80;97.60
17843;DHT22;69286;48.222;16.332;2024-02-16T09:04:57;13.90;97.90
17843;DHT22;69286;48.222;16.332;2024-02-16T09:07:24;14.00;98.00
17843;DHT22;69286;48.222;16.332;2024-02-16T09:09:53;14.10;97.70
17843;DHT22;69286;48.222;16.332;2024-02-16T09:12:22;14.20;97.10
17843;DHT22;69286;48.222;16.332;2024-02-16T09:14:50;14.00;97.00
17843;DHT22;69286;48.222;16.332;2024-02-16T09:17:17;13.90;97.50
17843;DHT22;69286;48.222;16.332;2024-02-16T09:19:45;14.10;97.30
17843;DHT22;69286;48.222;16.332;2024-02-16T09:22:12;14.20;96.70
17843;DHT22;69286;48.222;16.332;2024-02-16T09:24:39;14.40;96.90
17843;DHT22;69286;48.222;16.332;2024-02-16T09:27:07;14.50;96.60
17843;DHT22;69286;48.222;16.332;2024-02-16T09:29:35;14.70;96.00
17843;DHT22;69286;48.222;16.332;2024-02-16T09:32:07;14.90;95.80
17843;DHT22;69286;48.222;16.332;2024-02-16T09:34:34;14.70;96.20
17843;DHT22;69286;48.222;16.332;2024-02-16T09:37:01;14.90;95.90
17843;DHT22;69286;48.222;16.332;2024-02-16T09:39:29;14.90;95.50
17843;DHT22;69286;48.222;16.332;2024-02-16T09:41:56;15.00;95.40
17843;DHT22;69286;48.222;16.332;2024-02-16T09:44:23;15.00;95.40
17843;DHT22;69286;48.222;16.332;2024-02-16T09:46:54;15.30;95.00
17843;DHT22;69286;48.222;16.332;2024-02-16T09:49:22;15.00;94.80
17843;DHT22;69286;48.222;16.332;2024-02-16T09:51:50;15.10;95.00
17843;DHT22;69286;48.222;16.332;2024-02-16T09:54:17;15.20;94.80
17843;DHT22;69286;48.222;16.332;2024-02-16T09:56:44;15.20;94.60
17843;DHT22;69286;48.222;16.332;2024-02-16T09:59:12;15.30;94.60
17843;DHT22;69286;48.222;16.332;2024-02-16T10:01:39;15.50;94.40
17843;DHT22;69286;48.222;16.332;2024-02-16T10:04:06;15.70;93.80
17843;DHT22;69286;48.222;16.332;2024-02-16T10:06:45;16.00;93.50
17843;DHT22;69286;48.222;16.332;2024-02-16T10:09:23;16.00;92.70
17843;DHT22;69286;48.222;16.332;2024-02-16T10:11:50;15.80;93.10
17843;DHT22;69286;48.222;16.332;2024-02-16T10:14:17;15.40;93.10
17843;DHT22;69286;48.222;16.332;2024-02-16T10:16:45;15.40;93.60
17843;DHT22;69286;48.222;16.332;2024-02-16T10:19:12;15.70;93.20
17843;DHT22;69286;48.222;16.332;2024-02-16T10:21:41;15.90;92.70
17843;DHT22;69286;48.222;16.332;2024-02-16T10:24:09;15.90;92.40
17843;DHT22;69286;48.222;16.332;2024-02-16T10:26:37;16.00;92.50
17843;DHT22;69286;48.222;16.332;2024-02-16T10:29:05;16.00;92.40
17843;DHT22;69286;48.222;16.332;2024-02-16T10:31:33;15.80;92.60
17843;DHT22;69286;48.222;16.332;2024-02-16T10:34:02;15.60;92.90
17843;DHT22;69286;48.222;16.332;2024-02-16T10:36:32;15.80;93.00
17843;DHT22;69286;48.222;16.332;2024-02-16T10:39:01;15.90;92.60
17843;DHT22;69286;48.222;16.332;2024-02-16T10:41:33;15.70;92.80
17843;DHT22;69286;48.222;16.332;2024-02-16T10:44:02;15.80;92.60
17843;DHT22;69286;48.222;16.332;2024-02-16T10:46:29;15.70;92.50
17843;DHT22;69286;48.222;16.332;2024-02-16T10:48:57;15.80;92.70
17843;DHT22;69286;48.222;16.332;2024-02-16T10:51:28;15.60;92.70
17843;DHT22;69286;48.222;16.332;2024-02-16T10:53:57;15.40;93.10
17843;DHT22;69286;48.222;16.332;2024-02-16T10:56:32;15.50;92.90
17843;DHT22;69286;48.222;16.332;2024-02-16T10:59:01;15.60;92.80
17843;DHT22;69286;48.222;16.332;2024-02-16T11:01:32;15.60;92.80
17843;DHT22;69286;48.222;16.332;2024-02-16T11:04:04;15.60;92.80
17843;DHT22;69286;48.222;16.332;2024-02-16T11:06:47;15.60;92.90
17843;DHT22;69286;48.222;16.332;2024-02-16T11:09:25;15.50;92.60
17843;DHT22;69286;48.222;16.332;2024-02-16T11:11:54;15.50;93.00
17843;DHT22;69286;48.222;16.332;2024-02-16T11:14:22;15.30;93.00
17843;DHT22;69286;48.222;16.332;2024-02-16T11:16:53;15.30;93.30
17843;DHT22;69286;48.222;16.332;2024-02-16T11:19:22;15.20;93.20
17843;DHT22;69286;48.222;16.332;2024-02-16T11:21:56;15.20;93.30
17843;DHT22;69286;48.222;16.332;2024-02-16T11:24:31;15.20;93.30
17843;DHT22;69286;48.222;16.332;2024-02-16T11:27:01;15.30;93.60
17843;DHT22;69286;48.222;16.332;2024-02-16T11:29:31;15.30;93.10
17843;DHT22;69286;48.222;16.332;2024-02-16T11:32:00;15.10;93.20
17843;DHT22;69286;48.222;16.332;2024-02-16T11:34:28;15.10;93.50
17843;DHT22;69286;48.222;16.332;2024-02-16T11:36:56;15.00;93.50
17843;DHT22;69286;48.222;16.332;2024-02-16T11:39:24;14.80;93.70
17843;DHT22;69286;48.222;16.332;2024-02-16T11:42:02;14.90;93.80
17843;DHT22;69286;48.222;16.332;2024-02-16T11:44:30;15.00;93.90
17843;DHT22;69286;48.222;16.332;2024-02-16T11:46:58;15.10;93.70
17843;DHT22;69286;48.222;16.332;2024-02-16T11:49:28;15.20;93.50
17843;DHT22;69286;48.222;16.332;2024-02-16T11:51:56;15.10;93.50
17843;DHT22;69286;48.222;16.332;2024-02-16T11:54:23;15.10;93.60
17843;DHT22;69286;48.222;16.332;2024-02-16T11:56:52;15.10;93.70
17843;DHT22;69286;48.222;16.332;2024-02-16T11:59:20;15.20;93.60
17843;DHT22;69286;48.222;16.332;2024-02-16T12:01:52;15.20;93.40
17843;DHT22;69286;48.222;16.332;2024-02-16T12:04:23;15.30;93.40
17843;DHT22;69286;48.222;16.332;2024-02-16T12:06:52;15.30;93.30
17843;DHT22;69286;48.222;16.332;2024-02-16T12:09:19;15.30;93.40
17843;DHT22;69286;48.222;16.332;2024-02-16T12:11:47;15.40;93.10
17843;DHT22;69286;48.222;16.332;2024-02-16T12:14:15;15.40;93.40
17843;DHT22;69286;48.222;16.332;2024-02-16T12:16:47;15.30;93.30
17843;DHT22;69286;48.222;16.332;2024-02-16T12:19:14;15.20;93.50
17843;DHT22;69286;48.222;16.332;2024-02-16T12:21:41;15.10;93.60
17843;DHT22;69286;48.222;16.332;2024-02-16T12:24:08;14.90;93.90
17843;DHT22;69286;48.222;16.332;2024-02-16T12:26:36;14.90;94.10
17843;DHT22;69286;48.222;16.332;2024-02-16T12:29:03;14.90;94.30
17843;DHT22;69286;48.222;16.332;2024-02-16T12:31:30;14.80;94.30
17843;DHT22;69286;48.222;16.332;2024-02-16T12:33:58;14.70;94.50
17843;DHT22;69286;48.222;16.332;2024-02-16T12:36:26;14.70;94.60
17843;DHT22;69286;48.222;16.332;2024-02-16T12:38:53;14.60;94.70
17843;DHT22;69286;48.222;16.332;2024-02-16T12:41:20;14.60;94.80
17843;DHT22;69286;48.222;16.332;2024-02-16T12:43:48;14.60;94.80
17843;DHT22;69286;48.222;16.332;2024-02-16T12:46:15;14.70;94.80
17843;DHT22;69286;48.222;16.332;2024-02-16T12:48:42;14.80;94.70
17843;DHT22;69286;48.222;16.332;2024-02-16T12:51:10;14.70;94.70
17843;DHT22;69286;48.222;16.332;2024-02-16T12:53:37;14.70;94.80
17843;DHT22;69286;48.222;16.332;2024-02-16T12:56:07;14.60;95.00
17843;DHT22;69286;48.222;16.332;2024-02-16T12:58:35;14.50;95.10
17843;DHT22;69286;48.222;16.332;2024-02-16T13:01:02;14.70;95.00
17843;DHT22;69286;48.222;16.332;2024-02-16T13:03:32;14.70;94.90
17843;DHT22;69286;48.222;16.332;2024-02-16T13:05:59;14.80;94.80
17843;DHT22;69286;48.222;16.332;2024-02-16T13:08:28;14.70;94.80
17843;DHT22;69286;48.222;16.332;2024-02-16T13:10:55;14.70;94.90
17843;DHT22;69286;48.222;16.332;2024-02-16T13:13:22;14.70;94.90
17843;DHT22;69286;48.222;16.332;2024-02-16T13:15:49;14.80;94.60
17843;DHT22;69286;48.222;16.332;2024-02-16T13:18:17;14.80;94.70
17843;DHT22;69286;48.222;16.332;2024-02-16T13:20:44;14.80;94.50
17843;DHT22;69286;48.222;16.332;2024-02-16T13:23:11;14.80;94.50
17843;DHT22;69286;48.222;16.332;2024-02-16T13:25:39;14.70;94.70
17843;DHT22;69286;48.222;16.332;2024-02-16T13:28:06;14.70;94.70
17843;DHT22;69286;48.222;16.332;2024-02-16T13:30:33;14.60;94.70
17843;DHT22;69286;48.222;16.332;2024-02-16T13:33:00;14.60;94.70
17843;DHT22;69286;48.222;16.332;2024-02-16T13:35:27;14.50;94.80
17843;DHT22;69286;48.222;16.332;2024-02-16T13:37:55;14.50;95.00
17843;DHT22;69286;48.222;16.332;2024-02-16T13:40:23;14.50;94.90
17843;DHT22;69286;48.222;16.332;2024-02-16T13:42:51;14.50;94.80
17843;DHT22;69286;48.222;16.332;2024-02-16T13:45:21;14.50;94.70
17843;DHT22;69286;48.222;16.332;2024-02-16T13:47:51;14.50;94.70
17843;DHT22;69286;48.222;16.332;2024-02-16T13:50:18;14.40;94.70
17843;DHT22;69286;48.222;16.332;2024-02-16T13:52:45;14.50;95.00
17843;DHT22;69286;48.222;16.332;2024-02-16T13:55:13;14.60;94.70
17843;DHT22;69286;48.222;16.332;2024-02-16T13:57:40;14.70;94.80
17843;DHT22;69286;48.222;16.332;2024-02-16T14:00:09;14.80;95.00
17843;DHT22;69286;48.222;16.332;2024-02-16T14:02:36;14.90;94.60
17843;DHT22;69286;48.222;16.332;2024-02-16T14:05:04;14.70;94.10
17843;DHT22;69286;48.222;16.332;2024-02-16T14:07:31;14.50;94.40
17843;DHT22;69286;48.222;16.332;2024-02-16T14:09:58;14.50;94.30
17843;DHT22;69286;48.222;16.332;2024-02-16T14:12:25;14.50;94.30
17843;DHT22;69286;48.222;16.332;2024-02-16T14:14:52;14.40;94.10
17843;DHT22;69286;48.222;16.332;2024-02-16T14:17:20;14.40;94.20
17843;DHT22;69286;48.222;16.332;2024-02-16T14:19:47;14.30;94.20
17843;DHT22;69286;48.222;16.332;2024-02-16T14:22:14;14.30;94.20
17843;DHT22;69286;48.222;16.332;2024-02-16T14:24:42;14.40;94.00
17843;DHT22;69286;48.222;16.332;2024-02-16T14:27:09;14.30;94.40
17843;DHT22;69286;48.222;16.332;2024-02-16T14:29:36;14.40;94.00
17843;DHT22;69286;48.222;16.332;2024-02-16T14:32:03;14.30;93.90
17843;DHT22;69286;48.222;16.332;2024-02-16T14:34:31;14.30;94.00
17843;DHT22;69286;48.222;16.332;2024-02-16T14:36:58;14.20;94.00
17843;DHT22;69286;48.222;16.332;2024-02-16T14:39:25;14.20;94.00
17843;DHT22;69286;48.222;16.332;2024-02-16T14:41:52;14.20;94.00
17843;DHT22;69286;48.222;16.332;2024-02-16T14:44:20;14.20;94.00
17843;DHT22;69286;48.222;16.332;2024-02-16T14:46:47;14.20;93.80
17843;DHT22;69286;48.222;16.332;2024-02-16T14:49:14;14.20;93.70
17843;DHT22;69286;48.222;16.332;2024-02-16T14:51:47;14.20;93.80
17843;DHT22;69286;48.222;16.332;2024-02-16T14:54:14;14.20;93.70
17843;DHT22;69286;48.222;16.332;2024-02-16T14:56:41;14.10;93.60
17843;DHT22;69286;48.222;16.332;2024-02-16T14:59:08;14.10;93.60
17843;DHT22;69286;48.222;16.332;2024-02-16T15:01:36;14.00;93.70
17843;DHT22;69286;48.222;16.332;2024-02-16T15:04:03;14.10;93.70
17843;DHT22;69286;48.222;16.332;2024-02-16T15:06:30;14.00;93.70
17843;DHT22;69286;48.222;16.332;2024-02-16T15:09:00;14.00;93.70
17843;DHT22;69286;48.222;16.332;2024-02-16T15:11:28;14.00;93.70
17843;DHT22;69286;48.222;16.332;2024-02-16T15:13:55;14.00;93.60
17843;DHT22;69286;48.222;16.332;2024-02-16T15:16:23;14.00;93.80
17843;DHT22;69286;48.222;16.332;2024-02-16T15:18:50;13.90;93.80
17843;DHT22;69286;48.222;16.332;2024-02-16T15:21:17;13.90;93.70
17843;DHT22;69286;48.222;16.332;2024-02-16T15:23:44;14.00;93.90
17843;DHT22;69286;48.222;16.332;2024-02-16T15:26:12;13.90;93.90